Time;durP1;ratioP1;P1;durP2;ratioP2;P2;SDS_P1;SDS_P2;PMS_P1;PMS_P2;Temp;Humidity;BMP_temperature;BMP_pressure;BME280_temperature;BME280_humidity;BME280_pressure;Samples;Min_cycle;Max_cycle;Signal;HPM_P1;HPM_P2
2023/04/16 00:00:36;;;;;;;15.20;10.83;;;7.30;99.90;;;10.09;65.77;97541.53;5065544;28;20040;-42
2023/04/16 00:03:04;;;;;;;17.37;11.10;;;7.30;99.90;;;9.94;66.60;97543.97;5063752;28;20048;-43
2023/04/16 00:05:32;;;;;;;16.80;10.47;;;7.30;99.90;;;10.31;65.33;97538.31;5061730;28;20052;-45
2023/04/16 00:07:59;;;;;;;14.77;11.27;;;7.40;99.90;;;10.33;65.11;97541.66;5063485;28;20045;-44
2023/04/16 00:10:27;;;;;;;16.17;11.80;;;7.40;99.90;;;10.20;65.41;97546.56;5065625;28;20045;-43
2023/04/16 00:12:54;;;;;;;13.47;9.80;;;7.40;99.90;;;10.02;65.88;97544.84;5064551;28;20052;-44
2023/04/16 00:15:22;;;;;;;14.63;10.87;;;7.30;99.90;;;10.22;65.02;97545.41;5061573;28;20431;-43
2023/04/16 00:17:50;;;;;;;15.20;11.43;;;7.40;99.90;;;10.05;65.96;97541.84;5062067;28;20041;-42
2023/04/16 00:20:19;;;;;;;12.17;9.77;;;7.40;99.90;;;10.11;65.55;97542.22;5065708;28;20512;-44
2023/04/16 00:22:46;;;;;;;19.13;10.80;;;7.40;99.90;;;9.94;66.37;97543.97;5065427;28;20045;-45
2023/04/16 00:25:14;;;;;;;14.37;10.10;;;7.30;99.90;;;10.00;66.18;97541.53;5061840;28;20037;-43
2023/04/16 00:27:41;;;;;;;17.33;11.93;;;7.30;99.90;;;10.19;65.30;97548.38;5062375;28;20418;-45
2023/04/16 00:30:09;;;;;;;13.83;9.40;;;7.40;99.90;;;10.10;65.90;97553.84;5064713;28;20053;-44
2023/04/16 00:32:37;;;;;;;13.83;10.43;;;7.40;99.90;;;9.78;66.72;97548.22;5064773;28;20041;-46
2023/04/16 00:35:05;;;;;;;14.53;10.17;;;7.20;99.90;;;9.79;66.99;97549.03;5044922;28;20048;-43
2023/04/16 00:37:33;;;;;;;15.47;10.13;;;7.20;99.90;;;10.13;65.63;97548.19;5057173;28;20248;-43
2023/04/16 00:40:00;;;;;;;16.30;11.00;;;7.30;99.90;;;10.34;64.97;97545.97;5060864;28;20048;-43
2023/04/16 00:42:28;;;;;;;16.20;10.70;;;7.30;99.90;;;10.50;64.75;97542.50;5064995;28;20037;-44
2023/04/16 00:44:55;;;;;;;15.07;11.00;;;7.50;99.90;;;10.09;65.87;97539.72;5061895;28;20044;-43
2023/04/16 00:47:24;;;;;;;16.30;10.97;;;7.40;99.90;;;10.29;65.12;97540.25;5061337;28;20049;-42
2023/04/16 00:49:51;;;;;;;13.57;9.60;;;7.40;99.90;;;9.96;66.05;97550.78;5028576;28;20049;-43
2023/04/16 00:52:19;;;;;;;15.73;10.20;;;7.30;99.90;;;10.00;66.15;97554.81;5062459;28;20044;-45
2023/04/16 00:54:47;;;;;;;16.03;10.27;;;7.30;99.90;;;10.10;66.02;97548.50;5062854;28;20056;-43
2023/04/16 00:57:15;;;;;;;13.10;7.83;;;7.30;99.90;;;9.59;67.62;97551.09;5059826;28;20048;-43
2023/04/16 00:59:42;;;;;;;16.27;11.40;;;7.20;99.90;;;9.94;66.28;97554.59;5040365;28;20042;-43
2023/04/16 01:02:11;;;;;;;15.13;9.10;;;7.30;99.90;;;9.72;67.18;97548.03;5060562;28;20498;-44
2023/04/16 01:04:39;;;;;;;16.63;10.90;;;7.20;99.90;;;10.10;65.91;97554.69;5054633;28;20528;-43
2023/04/16 01:07:06;;;;;;;15.30;10.10;;;7.30;99.90;;;10.19;65.64;97553.69;5062506;28;20051;-45
2023/04/16 01:09:34;;;;;;;14.70;10.07;;;7.30;99.90;;;10.38;64.97;97551.81;5059316;28;20506;-44
2023/04/16 01:12:03;;;;;;;16.67;10.40;;;7.50;99.90;;;10.47;64.81;97545.53;5062268;28;20353;-46
2023/04/16 01:14:35;;;;;;;14.97;9.70;;;7.50;99.90;;;10.27;65.11;97552.91;5062500;28;20048;-46
2023/04/16 01:17:03;;;;;;;12.90;7.73;;;7.40;99.90;;;10.08;65.93;97551.34;5062677;28;20044;-49
2023/04/16 01:19:31;;;;;;;15.60;8.83;;;7.30;99.90;;;9.99;65.95;97558.44;5059839;28;20041;-43
2023/04/16 01:21:58;;;;;;;11.57;8.77;;;7.20;99.90;;;10.17;65.67;97546.88;5061122;28;20049;-44
2023/04/16 01:24:26;;;;;;;11.53;7.90;;;7.30;99.90;;;10.05;65.82;97554.31;5063733;28;20040;-44
2023/04/16 01:26:53;;;;;;;13.73;8.77;;;7.30;99.90;;;9.92;66.38;97561.91;5062754;28;20459;-44
2023/04/16 01:29:21;;;;;;;11.90;8.03;;;7.30;99.90;;;10.12;65.97;97566.00;5052966;28;20417;-45
2023/04/16 01:31:49;;;;;;;12.33;9.63;;;7.30;99.90;;;9.97;66.03;97563.09;5059277;28;20041;-45
2023/04/16 01:34:35;;;;;;;12.13;8.87;;;7.30;99.90;;;9.60;67.47;97558.91;5058709;28;20066;-44
2023/04/16 01:37:03;;;;;;;14.33;9.03;;;7.20;99.90;;;9.78;67.00;97560.69;5060173;28;20421;-44
2023/04/16 01:39:30;;;;;;;14.00;8.67;;;7.20;99.90;;;9.76;67.12;97560.00;5063959;28;20045;-46
2023/04/16 01:41:58;;;;;;;13.63;9.80;;;7.20;99.90;;;10.13;66.05;97562.31;5063165;28;20041;-44
2023/04/16 01:44:25;;;;;;;13.90;8.87;;;7.30;99.90;;;10.10;66.09;97569.78;5057936;28;20528;-43
2023/04/16 01:46:53;;;;;;;13.97;9.00;;;7.30;99.90;;;9.99;66.18;97574.41;5060134;28;20041;-45
2023/04/16 01:49:22;;;;;;;13.40;9.67;;;7.30;99.90;;;9.77;66.98;97572.28;5050686;28;20041;-43
2023/04/16 01:51:50;;;;;;;16.00;9.60;;;7.20;99.90;;;9.78;67.23;97568.66;5059949;28;20056;-43
2023/04/16 01:54:17;;;;;;;13.63;10.10;;;7.20;99.90;;;9.82;66.93;97568.16;5060239;28;20525;-44
2023/04/16 01:56:45;;;;;;;16.10;10.90;;;7.20;99.90;;;10.01;66.27;97571.59;5063521;28;20040;-46
2023/04/16 01:59:13;;;;;;;15.73;10.63;;;7.20;99.90;;;9.91;66.62;97577.03;5059464;28;20048;-45
2023/04/16 02:01:42;;;;;;;16.37;10.27;;;7.20;99.90;;;10.23;65.48;97568.34;5058439;28;20425;-44
2023/04/16 02:04:10;;;;;;;15.70;10.33;;;7.40;99.90;;;10.12;65.81;97568.66;5076203;28;20047;-45
2023/04/16 02:06:38;;;;;;;16.33;9.97;;;7.30;99.90;;;10.17;65.92;97570.81;5054595;28;20049;-45
2023/04/16 02:09:06;;;;;;;16.80;11.07;;;7.30;99.90;;;10.12;65.93;97573.13;5061734;28;20055;-49
2023/04/16 02:11:34;;;;;;;16.93;11.77;;;7.30;99.90;;;10.03;66.28;97569.59;5058434;28;20051;-44
2023/04/16 02:14:01;;;;;;;17.30;10.90;;;7.20;99.90;;;9.98;66.28;97575.41;5064711;28;20445;-45
2023/04/16 02:16:29;;;;;;;19.77;11.63;;;7.20;99.90;;;9.99;66.38;97574.41;5061339;28;20044;-45
2023/04/16 02:19:20;;;;;;;16.90;12.37;;;7.20;99.90;;;10.21;65.59;97574.81;5051508;28;20049;-46
2023/04/16 02:21:50;;;;;;;19.47;12.47;;;7.30;99.90;;;10.31;65.42;97569.41;5057496;28;20049;-47
2023/04/16 02:24:18;;;;;;;17.03;11.53;;;7.40;99.90;;;9.93;66.64;97579.53;5076349;28;20051;-46
2023/04/16 02:26:47;;;;;;;18.47;11.17;;;7.30;99.90;;;10.07;65.99;97578.94;5063030;28;20043;-45
2023/04/16 02:29:18;;;;;;;19.10;11.43;;;7.30;99.90;;;10.29;65.30;97576.69;5050786;28;20064;-45
2023/04/16 02:31:51;;;;;;;19.50;11.33;;;7.30;99.90;;;10.14;65.96;97571.13;5059533;28;20045;-44
2023/04/16 02:34:20;;;;;;;21.27;11.13;;;7.30;99.90;;;10.31;65.48;97570.22;5060312;28;20500;-45
2023/04/16 02:36:47;;;;;;;19.73;11.93;;;7.30;99.90;;;10.11;65.97;97572.28;5061244;28;20048;-44
2023/04/16 02:39:16;;;;;;;18.33;11.80;;;7.20;99.90;;;10.15;65.71;97581.63;5058196;28;20048;-45
2023/04/16 02:41:43;;;;;;;18.87;11.93;;;7.20;99.90;;;10.01;65.98;97580.41;5059698;28;20045;-44
2023/04/16 02:44:11;;;;;;;17.70;11.53;;;7.20;99.90;;;9.99;66.21;97579.72;5060677;28;20045;-45
2023/04/16 02:46:38;;;;;;;17.40;11.53;;;7.20;99.90;;;10.02;66.16;97579.41;5044587;28;20051;-44
2023/04/16 02:49:06;;;;;;;21.03;13.13;;;7.20;99.90;;;9.82;66.88;97585.94;5060324;28;20502;-43
2023/04/16 02:51:34;;;;;;;20.73;12.07;;;7.20;99.90;;;9.82;66.75;97580.63;5057912;28;20056;-45
2023/04/16 02:54:02;;;;;;;19.37;12.40;;;7.10;99.90;;;10.02;66.26;97590.06;5063079;28;20053;-48
2023/04/16 02:56:30;;;;;;;18.40;10.27;;;7.20;99.90;;;9.41;67.83;97585.69;5043465;28;20391;-44
2023/04/16 02:58:58;;;;;;;18.73;11.27;;;7.00;99.90;;;9.65;67.32;97591.19;5062306;28;20041;-44
2023/04/16 03:01:27;;;;;;;19.57;12.00;;;7.00;99.90;;;9.61;67.50;97587.16;5049842;28;20056;-45
2023/04/16 03:03:55;;;;;;;22.57;14.93;;;7.10;99.90;;;9.91;66.66;97585.00;5057506;28;20051;-46
2023/04/16 03:06:22;;;;;;;24.67;12.53;;;7.10;99.90;;;9.95;66.23;97597.00;5044024;28;20040;-46
2023/04/16 03:08:50;;;;;;;17.37;9.83;;;7.20;99.90;;;9.69;67.45;97601.50;5060743;28;20056;-46
2023/04/16 03:11:19;;;;;;;21.43;12.47;;;7.10;99.90;;;9.89;66.70;97594.13;5057894;28;20048;-46
2023/04/16 03:13:46;;;;;;;22.83;13.20;;;7.10;99.90;;;9.97;66.39;97591.53;5057694;28;20049;-46
2023/04/16 03:16:14;;;;;;;20.83;12.80;;;7.20;99.90;;;9.83;66.86;97595.63;5058797;28;20049;-46
2023/04/16 03:18:42;;;;;;;22.87;14.07;;;7.10;99.90;;;9.83;67.00;97595.63;5062284;28;20043;-44
2023/04/16 03:21:09;;;;;;;16.47;10.43;;;7.10;99.90;;;9.60;67.63;97604.09;5059748;28;20051;-43
2023/04/16 03:23:37;;;;;;;20.60;11.73;;;7.00;99.90;;;9.86;66.41;97597.94;5058598;28;20045;-44
2023/04/16 03:26:05;;;;;;;18.30;10.97;;;7.10;99.90;;;9.76;66.99;97600.72;5058930;28;20052;-44
2023/04/16 03:28:33;;;;;;;19.53;11.13;;;7.00;99.90;;;9.61;67.34;97604.94;5060988;28;20044;-44
2023/04/16 03:31:00;;;;;;;23.30;13.27;;;7.00;99.90;;;9.68;67.61;97599.84;5060913;28;20478;-44
2023/04/16 03:33:28;;;;;;;23.33;12.53;;;7.00;99.90;;;9.80;67.06;97604.72;5051220;28;20056;-44
2023/04/16 03:35:57;;;;;;;22.43;12.77;;;7.00;99.90;;;9.94;66.87;97605.13;5062340;28;20060;-46
2023/04/16 03:38:26;;;;;;;23.60;13.60;;;7.10;99.90;;;9.98;66.32;97611.78;5061216;28;20041;-45
2023/04/16 03:40:56;;;;;;;27.47;14.13;;;7.10;99.90;;;9.76;67.04;97615.84;5061110;28;20045;-44
2023/04/16 03:43:24;;;;;;;17.77;11.17;;;7.00;99.90;;;9.29;68.70;97618.84;5064246;28;20059;-45
2023/04/16 03:45:52;;;;;;;20.33;10.57;;;6.90;99.90;;;9.20;68.98;97610.78;5064020;28;20037;-46
2023/04/16 03:48:22;;;;;;;23.53;13.43;;;6.80;99.90;;;9.46;68.27;97621.44;5061460;28;20048;-43
2023/04/16 03:50:50;;;;;;;20.80;12.57;;;6.90;99.90;;;9.18;69.02;97611.91;5062579;28;20045;-44
2023/04/16 03:53:19;;;;;;;17.50;9.43;;;6.90;99.90;;;9.26;68.74;97606.66;5060976;28;20049;-45
2023/04/16 03:55:51;;;;;;;21.93;11.77;;;6.90;99.90;;;9.08;69.44;97617.31;5063895;28;20052;-46
2023/04/16 03:58:20;;;;;;;20.20;10.87;;;6.90;99.90;;;9.34;68.58;97612.03;5061486;28;20059;-46
2023/04/16 04:00:48;;;;;;;19.13;11.17;;;6.90;99.90;;;9.31;68.75;97614.19;5061128;28;20425;-45
2023/04/16 04:03:17;;;;;;;19.67;11.37;;;6.90;99.90;;;9.48;68.04;97613.34;5068256;28;20056;-45
2023/04/16 04:05:47;;;;;;;22.13;12.93;;;7.00;99.90;;;9.46;68.20;97617.97;5060246;28;20064;-45
2023/04/16 04:08:20;;;;;;;21.67;12.53;;;7.00;99.90;;;9.52;67.77;97617.34;5063083;28;20045;-46
2023/04/16 04:10:47;;;;;;;14.93;9.93;;;7.00;99.90;;;9.12;69.14;97616.03;5065627;28;20048;-46
2023/04/16 04:13:15;;;;;;;18.93;10.70;;;6.90;99.90;;;9.20;69.17;97615.25;5061772;28;20266;-43
2023/04/16 04:15:43;;;;;;;14.50;8.80;;;6.90;99.90;;;8.51;71.49;97622.91;5060581;28;20506;-44
2023/04/16 04:18:11;;;;;;;15.73;10.13;;;6.80;99.90;;;9.01;69.84;97638.31;5061742;28;20063;-44
2023/04/16 04:20:40;;;;;;;21.17;11.47;;;6.80;99.90;;;8.75;70.71;97632.09;5064141;28;20051;-44
2023/04/16 04:23:08;;;;;;;18.50;11.93;;;6.80;99.90;;;9.10;70.02;97631.28;5062893;28;20049;-43
2023/04/16 04:25:35;;;;;;;16.77;10.77;;;6.80;99.90;;;8.85;70.42;97623.06;5060045;28;20048;-44
2023/04/16 04:28:03;;;;;;;16.57;10.27;;;6.80;99.90;;;9.33;68.79;97630.81;5060288;28;20049;-43
2023/04/16 04:30:31;;;;;;;14.40;8.60;;;6.90;99.90;;;9.26;69.00;97631.41;5052656;28;20044;-46
2023/04/16 04:32:58;;;;;;;23.47;12.43;;;6.90;99.90;;;9.11;69.52;97627.66;5061790;28;20056;-44
2023/04/16 04:35:27;;;;;;;15.57;9.73;;;6.80;99.90;;;9.27;69.11;97627.78;5062653;28;20055;-45
2023/04/16 04:37:55;;;;;;;18.30;11.40;;;6.90;99.90;;;9.31;69.01;97646.06;5063537;28;20049;-47
2023/04/16 04:40:22;;;;;;;17.03;10.07;;;6.90;99.90;;;9.51;68.39;97641.41;5061069;28;20425;-48
2023/04/16 04:42:52;;;;;;;16.23;11.37;;;6.90;99.90;;;9.53;68.17;97645.56;5059974;28;20041;-45
2023/04/16 04:45:24;;;;;;;17.23;10.67;;;6.90;99.90;;;9.05;69.84;97644.16;5060894;28;20411;-44
2023/04/16 04:47:53;;;;;;;17.33;11.37;;;6.80;99.90;;;9.26;69.28;97646.50;5065042;28;20043;-44
2023/04/16 04:50:21;;;;;;;21.50;11.53;;;6.80;99.90;;;9.56;68.07;97647.94;5060685;28;20049;-45
2023/04/16 04:52:48;;;;;;;17.87;10.37;;;6.90;99.90;;;9.70;67.63;97656.34;5059811;28;20505;-46
2023/04/16 04:55:16;;;;;;;21.87;12.37;;;7.00;99.90;;;9.62;67.80;97657.13;5065800;28;20052;-46
2023/04/16 04:57:43;;;;;;;26.57;13.80;;;7.00;99.90;;;9.89;66.94;97663.25;5064654;28;20048;-44
2023/04/16 05:00:11;;;;;;;21.60;12.93;;;7.00;99.90;;;9.71;67.79;97658.81;5062276;28;20049;-43
2023/04/16 05:02:47;;;;;;;28.50;15.77;;;7.00;99.90;;;9.82;67.13;97669.22;5059674;28;20422;-44
2023/04/16 05:05:15;;;;;;;31.73;16.40;;;7.00;99.90;;;9.37;68.61;97664.88;5061592;28;20045;-45
2023/04/16 05:07:43;;;;;;;28.80;16.77;;;6.90;99.90;;;9.38;68.59;97671.03;5064726;28;20056;-44
2023/04/16 05:10:11;;;;;;;26.07;15.00;;;6.90;99.90;;;9.47;68.15;97670.09;5063741;28;20432;-44
2023/04/16 05:12:39;;;;;;;32.37;18.30;;;6.90;99.90;;;9.21;69.26;97676.22;5059818;28;20417;-44
2023/04/16 05:15:07;;;;;;;33.17;16.67;;;6.80;99.90;;;9.53;68.23;97666.84;5060649;28;20489;-45
2023/04/16 05:17:34;;;;;;;35.30;17.83;;;6.90;99.90;;;9.69;67.97;97678.59;5053250;28;20304;-44
2023/04/16 05:20:02;;;;;;;29.03;14.53;;;7.00;99.90;;;9.59;68.07;97678.69;5060946;28;20041;-47
2023/04/16 05:22:30;;;;;;;32.97;17.10;;;6.90;99.90;;;9.70;67.66;97686.41;5063848;28;20052;-46
2023/04/16 05:24:57;;;;;;;28.23;16.90;;;6.90;99.90;;;9.67;67.86;97686.72;5063749;28;20045;-44
2023/04/16 05:27:25;;;;;;;30.80;16.80;;;6.90;99.90;;;9.12;69.56;97687.72;5061785;28;20037;-44
2023/04/16 05:29:52;;;;;;;32.13;17.87;;;6.80;99.90;;;9.41;68.79;97692.00;5060742;28;20055;-46
2023/04/16 05:32:20;;;;;;;40.10;19.83;;;6.90;99.90;;;9.85;67.43;97694.66;5062261;28;20045;-45
2023/04/16 05:34:47;;;;;;;34.27;17.57;;;7.00;99.90;;;9.29;69.25;97709.97;5062360;28;20053;-46
2023/04/16 05:37:15;;;;;;;34.00;17.73;;;6.90;99.90;;;9.44;68.71;97703.16;5062957;28;20067;-46
2023/04/16 05:39:42;;;;;;;34.07;18.13;;;6.90;99.90;;;9.52;68.12;97699.72;5060297;28;20422;-44
2023/04/16 05:42:10;;;;;;;33.70;19.10;;;6.90;99.90;;;9.33;69.02;97703.38;5058857;28;20037;-46
2023/04/16 05:44:37;;;;;;;38.57;20.10;;;6.90;99.90;;;9.78;67.90;97704.25;5063481;28;20040;-50
2023/04/16 05:47:08;;;;;;;38.07;19.97;;;7.00;99.90;;;9.93;67.21;97702.69;5063839;28;20037;-49
2023/04/16 05:49:38;;;;;;;37.10;18.77;;;7.10;99.90;;;9.96;67.17;97717.50;5052107;28;20063;-51
2023/04/16 05:52:06;;;;;;;37.63;19.30;;;7.10;99.90;;;10.03;66.66;97716.72;5060340;28;20422;-46
2023/04/16 05:54:34;;;;;;;38.43;17.20;;;7.10;99.90;;;9.89;67.16;97713.78;5062032;28;20044;-45
2023/04/16 05:57:02;;;;;;;35.47;17.83;;;7.00;99.90;;;9.82;67.23;97725.03;5061833;28;20048;-45
2023/04/16 05:59:30;;;;;;;36.90;19.20;;;7.10;99.90;;;9.55;68.23;97725.97;5060364;28;20415;-47
2023/04/16 06:01:57;;;;;;;38.23;18.73;;;7.00;99.90;;;9.68;67.60;97724.78;5060105;28;20051;-46
2023/04/16 06:04:25;;;;;;;37.27;18.97;;;7.00;99.90;;;9.45;68.41;97734.03;5061751;28;20041;-47
2023/04/16 06:06:52;;;;;;;29.10;16.97;;;6.90;99.90;;;9.51;68.20;97724.63;5063592;28;20048;-45
2023/04/16 06:09:20;;;;;;;33.83;18.47;;;6.90;99.90;;;9.70;67.71;97733.44;5061751;28;20044;-42
2023/04/16 06:11:48;;;;;;;29.43;16.07;;;6.90;99.90;;;9.33;69.01;97739.75;5058117;28;20080;-45
2023/04/16 06:14:15;;;;;;;32.07;18.53;;;6.80;99.90;;;9.31;68.83;97736.41;5060164;28;20049;-44
2023/04/16 06:16:43;;;;;;;33.90;18.07;;;6.80;99.90;;;9.31;68.88;97742.53;5063198;28;20049;-43
2023/04/16 06:19:10;;;;;;;28.10;13.27;;;6.80;99.90;;;9.30;68.95;97735.53;5062833;28;20493;-46
2023/04/16 06:21:38;;;;;;;36.00;19.13;;;6.80;99.90;;;9.52;68.20;97730.75;5059524;28;20051;-46
2023/04/16 06:24:06;;;;;;;36.73;17.37;;;6.90;99.90;;;9.77;67.46;97735.31;5057480;28;20048;-46
2023/04/16 06:26:33;;;;;;;34.20;19.60;;;7.00;99.90;;;9.85;67.51;97737.22;5058522;28;20044;-47
2023/04/16 06:29:01;;;;;;;36.07;19.17;;;7.00;99.90;;;9.88;67.30;97742.22;5061946;28;20040;-46
2023/04/16 06:31:29;;;;;;;33.60;18.27;;;7.10;99.90;;;10.14;66.52;97738.72;5060739;28;20048;-45
2023/04/16 06:33:57;;;;;;;32.40;18.17;;;7.20;99.90;;;9.42;68.54;97737.00;5060205;28;20047;-43
2023/04/16 06:36:26;;;;;;;27.80;15.13;;;7.00;99.90;;;9.56;68.05;97734.81;5059753;28;20502;-46
2023/04/16 06:38:53;;;;;;;34.80;17.43;;;6.90;99.90;;;9.79;67.29;97748.44;5056622;28;20037;-47
2023/04/16 06:41:24;;;;;;;36.60;18.07;;;7.00;99.90;;;9.71;67.78;97737.75;5058440;28;20041;-46
2023/04/16 06:43:51;;;;;;;31.27;17.67;;;7.00;99.90;;;9.62;67.83;97747.50;5027846;28;20049;-48
2023/04/16 06:46:19;;;;;;;24.33;13.13;;;7.00;99.90;;;9.48;68.31;97745.34;5060696;28;20548;-46
2023/04/16 06:48:46;;;;;;;29.93;17.80;;;7.00;99.90;;;9.51;68.35;97747.72;5056881;28;20041;-47
2023/04/16 06:51:14;;;;;;;31.40;16.47;;;7.00;99.90;;;9.97;67.23;97751.94;5057371;28;20434;-46
2023/04/16 06:53:41;;;;;;;31.13;17.77;;;7.10;99.90;;;9.88;67.26;97750.19;5042874;28;20526;-43
2023/04/16 06:56:09;;;;;;;30.53;16.20;;;7.10;99.90;;;9.95;66.83;97753.91;5061144;28;20521;-44
2023/04/16 06:58:37;;;;;;;30.37;15.97;;;7.10;99.90;;;9.97;66.47;97754.59;5056683;28;20068;-46
2023/04/16 07:01:04;;;;;;;27.63;16.43;;;7.10;99.90;;;10.22;66.00;97749.44;5058025;28;20388;-44
2023/04/16 07:03:32;;;;;;;25.77;15.43;;;7.20;99.90;;;10.06;66.26;97755.47;5059365;28;20048;-45
2023/04/16 07:06:00;;;;;;;29.77;15.43;;;7.10;99.90;;;9.92;66.76;97754.19;5060946;28;20045;-45
2023/04/16 07:08:27;;;;;;;32.43;17.10;;;7.10;99.90;;;9.91;66.79;97760.53;5059204;28;20037;-46
2023/04/16 07:10:55;;;;;;;30.60;15.43;;;7.10;99.90;;;9.99;66.59;97757.94;5056757;28;20065;-49
2023/04/16 07:13:23;;;;;;;27.87;15.23;;;7.10;99.90;;;9.95;66.46;97759.22;5059395;28;20402;-45
2023/04/16 07:15:50;;;;;;;29.23;14.87;;;7.10;99.90;;;10.10;66.44;97756.00;5058975;28;20079;-46
2023/04/16 07:18:18;;;;;;;23.33;13.50;;;7.20;99.90;;;9.76;67.08;97759.41;5060681;28;20053;-44
2023/04/16 07:20:47;;;;;;;23.53;13.27;;;7.10;99.90;;;10.00;66.53;97758.75;5054990;28;20051;-46
2023/04/16 07:23:15;;;;;;;26.77;15.00;;;7.20;99.90;;;10.21;66.21;97761.06;5056759;28;20425;-48
2023/04/16 07:25:42;;;;;;;21.80;13.57;;;7.30;99.90;;;10.01;66.46;97765.75;5061016;28;20063;-46
2023/04/16 07:28:11;;;;;;;23.93;13.60;;;7.20;99.90;;;10.28;66.06;97763.97;5061358;28;20485;-45
2023/04/16 07:30:38;;;;;;;22.60;11.17;;;7.30;99.90;;;9.95;66.93;97771.69;5057927;28;20052;-46
2023/04/16 07:33:06;;;;;;;24.33;13.57;;;7.20;99.90;;;9.68;67.53;97777.94;5056246;28;20068;-46
2023/04/16 07:35:34;;;;;;;19.47;11.90;;;7.10;99.90;;;9.38;68.39;97772.84;5057849;28;20076;-48
2023/04/16 07:38:02;;;;;;;20.87;12.70;;;7.00;99.90;;;9.74;67.58;97780.00;5061354;28;20051;-46
2023/04/16 07:40:29;;;;;;;24.77;15.00;;;7.10;99.90;;;9.99;66.94;97775.72;5059214;28;20520;-45
2023/04/16 07:42:57;;;;;;;25.37;12.97;;;7.20;99.90;;;9.81;67.34;97773.09;5057651;28;20044;-47
2023/04/16 07:45:24;;;;;;;24.77;13.77;;;7.30;99.90;;;10.33;66.05;97780.31;5059295;28;20045;-46
2023/04/16 07:47:52;;;;;;;20.03;13.23;;;7.40;99.90;;;10.39;65.67;97777.00;5062106;28;20040;-44
2023/04/16 07:50:19;;;;;;;23.07;12.57;;;7.50;99.90;;;10.42;65.29;97790.84;5061603;28;20051;-47
2023/04/16 07:52:47;;;;;;;21.30;12.87;;;7.50;99.90;;;10.25;65.91;97786.38;5058695;28;20041;-45
2023/04/16 07:55:14;;;;;;;19.70;12.53;;;7.40;99.90;;;10.09;66.25;97792.41;5037012;28;20049;-45
2023/04/16 07:57:42;;;;;;;23.87;14.57;;;7.40;99.90;;;10.32;65.41;97794.63;5049657;28;20056;-45
2023/04/16 08:00:10;;;;;;;19.77;13.57;;;7.40;99.90;;;10.43;65.34;97787.19;5056629;28;20045;-46
2023/04/16 08:02:42;;;;;;;22.40;12.93;;;7.40;99.90;;;10.43;64.96;97795.19;5059696;28;20045;-46
2023/04/16 08:05:11;;;;;;;23.90;14.03;;;7.50;99.90;;;10.43;65.17;97789.03;5060306;28;20560;-45
2023/04/16 08:07:38;;;;;;;24.00;14.07;;;7.50;99.90;;;10.46;64.88;97787.88;5058907;28;20044;-45
2023/04/16 08:10:07;;;;;;;22.87;13.97;;;7.40;99.90;;;10.42;65.38;97795.34;5058648;28;20060;-45
2023/04/16 08:12:35;;;;;;;24.67;14.40;;;7.50;99.90;;;10.38;65.11;97804.63;5060647;28;20076;-45
2023/04/16 08:15:02;;;;;;;19.50;12.07;;;7.50;99.90;;;9.86;66.15;97803.53;5059285;28;20048;-46
2023/04/16 08:17:30;;;;;;;23.17;14.17;;;7.30;99.90;;;10.07;65.92;97810.34;5060143;28;20048;-46
2023/04/16 08:19:57;;;;;;;21.57;14.00;;;7.30;99.90;;;10.19;65.69;97802.97;5059468;28;20052;-44
2023/04/16 08:22:25;;;;;;;20.03;11.87;;;7.40;99.90;;;10.27;65.45;97805.66;5062917;28;20502;-47
2023/04/16 08:24:53;;;;;;;19.47;13.80;;;7.50;99.90;;;10.12;65.80;97817.84;5064900;28;20063;-44
2023/04/16 08:27:20;;;;;;;20.63;13.47;;;7.40;99.90;;;9.76;66.83;97818.72;5065029;28;20049;-45
2023/04/16 08:29:48;;;;;;;18.67;11.23;;;7.30;99.90;;;10.17;65.76;97819.06;5061924;28;20045;-45
2023/04/16 08:32:15;;;;;;;18.10;11.80;;;7.40;99.90;;;10.31;65.50;97823.03;5061852;28;20048;-45
2023/04/16 08:34:43;;;;;;;14.97;9.77;;;7.40;99.90;;;9.93;65.66;97816.22;5063555;28;20045;-45
2023/04/16 08:37:10;;;;;;;23.07;13.10;;;7.40;99.90;;;9.95;66.23;97825.72;5065128;28;20071;-44
2023/04/16 08:39:38;;;;;;;17.23;10.80;;;7.30;99.90;;;9.97;66.06;97828.22;5062208;28;20055;-46
2023/04/16 08:42:22;;;;;;;21.37;10.93;;;7.30;99.90;;;10.11;65.86;97816.19;5062086;28;20414;-45
2023/04/16 08:44:57;;;;;;;18.90;11.52;;;7.40;99.90;;;10.01;66.06;97830.41;5032780;28;20049;-44
2023/04/16 08:47:27;;;;;;;20.40;12.83;;;7.40;99.90;;;10.38;65.18;97831.25;5058254;28;20040;-45
2023/04/16 08:49:57;;;;;;;18.90;10.70;;;7.50;99.90;;;10.07;66.24;97828.97;5063568;28;20114;-45
2023/04/16 08:52:29;;;;;;;19.23;12.43;;;7.50;99.90;;;10.16;65.77;97830.72;5064375;28;20509;-46
2023/04/16 08:55:10;;;;;;;18.83;11.93;;;7.50;99.90;;;10.31;65.47;97833.66;5059415;28;20068;-47
2023/04/16 08:57:58;;;;;;;18.67;12.57;;;7.50;99.90;;;10.66;64.83;97831.91;5064000;28;20268;-44
2023/04/16 09:00:27;;;;;;;23.77;14.93;;;7.70;99.90;;;10.63;64.86;97840.22;5063597;28;20047;-45
2023/04/16 09:02:54;;;;;;;21.00;12.50;;;7.80;99.90;;;10.51;65.16;97839.66;5061184;28;20037;-44
2023/04/16 09:05:24;;;;;;;23.33;11.77;;;7.70;99.90;;;10.18;65.97;97842.03;5061122;28;20045;-44
2023/04/16 09:07:55;;;;;;;19.93;11.43;;;7.60;99.90;;;9.92;66.97;97852.59;5063276;28;20048;-44
2023/04/16 09:10:25;;;;;;;20.07;12.03;;;7.50;99.90;;;10.30;65.56;97847.13;5064304;28;20040;-45
2023/04/16 09:12:57;;;;;;;22.30;12.80;;;7.60;99.90;;;10.44;65.36;97847.41;5060016;28;20037;-45
2023/04/16 09:15:25;;;;;;;19.50;11.40;;;7.70;99.90;;;10.43;65.49;97844.94;5061123;28;20525;-45
2023/04/16 09:17:55;;;;;;;22.87;12.33;;;7.80;99.90;;;10.29;65.69;97846.25;5063567;28;20052;-45
2023/04/16 09:20:22;;;;;;;19.27;12.30;;;7.70;99.90;;;10.56;65.19;97847.16;5064206;28;20092;-47
2023/04/16 09:22:50;;;;;;;17.87;11.37;;;7.80;99.90;;;10.42;65.62;97852.06;5060757;28;20411;-45
2023/04/16 09:25:21;;;;;;;21.60;11.87;;;7.80;99.90;;;10.49;65.47;97851.44;5059382;28;20422;-46
2023/04/16 09:27:50;;;;;;;20.43;12.47;;;7.80;99.90;;;10.66;65.08;97855.88;5048303;28;20041;-46
2023/04/16 09:30:21;;;;;;;22.73;13.70;;;7.90;99.90;;;10.76;64.75;97856.63;5056671;28;20506;-44
2023/04/16 09:33:12;;;;;;;23.67;12.60;;;8.00;99.90;;;10.78;64.79;97853.81;5052948;28;20045;-45
2023/04/16 09:35:51;;;;;;;23.17;13.17;;;8.00;99.90;;;10.61;65.07;97856.34;5062909;28;20045;-45
2023/04/16 09:38:19;;;;;;;21.40;12.50;;;7.90;99.90;;;10.85;64.47;97857.50;5064090;28;20041;-47
2023/04/16 09:40:47;;;;;;;22.47;13.10;;;8.00;99.90;;;10.97;64.16;97866.91;5062812;28;20040;-45
2023/04/16 09:43:17;;;;;;;21.40;11.70;;;8.10;99.90;;;10.66;64.62;97869.19;5062377;28;20398;-44
2023/04/16 09:45:52;;;;;;;20.77;12.23;;;8.00;99.90;;;10.76;64.38;97863.75;5059681;28;20041;-47
2023/04/16 09:48:31;;;;;;;20.90;12.00;;;7.90;99.90;;;10.97;64.29;97869.56;5060548;28;20036;-45
2023/04/16 09:51:00;;;;;;;24.17;11.83;;;8.10;99.90;;;10.87;64.12;97876.81;5053714;28;20395;-45
2023/04/16 09:53:29;;;;;;;24.03;12.80;;;8.00;99.90;;;10.87;64.07;97868.00;5043367;28;20048;-46
2023/04/16 09:56:03;;;;;;;21.90;12.57;;;8.00;99.90;;;10.91;64.09;97869.34;5063345;28;20048;-47
2023/04/16 09:58:32;;;;;;;;;;;8.00;99.90;;;11.04;63.60;97873.25;5062898;28;20041;-46
2023/04/16 10:01:11;;;;;;;20.40;12.03;;;8.10;99.90;;;11.08;63.31;97880.94;5060010;28;19921;-45
2023/04/16 10:03:39;;;;;;;16.47;10.00;;;8.10;99.90;;;10.80;63.93;97873.97;5061008;28;20048;-46
2023/04/16 10:06:18;;;;;;;19.47;12.30;;;8.00;99.90;;;10.51;64.84;97876.09;5062178;28;20489;-44
2023/04/16 10:08:51;;;;;;;20.33;12.30;;;7.90;99.90;;;10.66;64.27;97881.66;5059255;28;20494;-46
2023/04/16 10:11:20;;;;;;;24.10;12.88;;;7.90;99.90;;;10.89;64.00;97884.66;5059818;28;20045;-44
2023/04/16 10:13:48;;;;;;;18.20;11.93;;;8.00;99.90;;;10.82;64.08;97884.47;5062968;28;20501;-46
2023/04/16 10:16:16;;;;;;;19.80;12.20;;;8.00;99.90;;;10.72;64.40;97881.03;5063087;28;20048;-47
2023/04/16 10:18:45;;;;;;;22.63;12.87;;;7.90;99.90;;;10.53;64.67;97882.94;5060401;28;20063;-44
2023/04/16 10:21:15;;;;;;;20.57;11.40;;;7.90;99.90;;;10.54;64.46;97894.41;5059791;28;20089;-45
2023/04/16 10:23:43;;;;;;;20.83;12.37;;;7.90;99.90;;;10.81;64.36;97896.91;5059560;28;20100;-47